createdAt,value
2019-01-11T00:00:39.847Z,37.2
2019-01-11T00:01:41.225Z,37.4
2019-01-11T00:02:42.601Z,37.5
2019-01-11T00:03:43.992Z,37.4
2019-01-11T00:04:45.364Z,37.4
2019-01-11T00:05:46.743Z,37.2
2019-01-11T00:06:48.099Z,37.4
2019-01-11T00:07:49.469Z,37.3
2019-01-11T00:08:50.881Z,37.3
2019-01-11T00:09:52.293Z,37.0
2019-01-11T00:10:53.645Z,37.3
2019-01-11T00:11:55.033Z,37.1
2019-01-11T00:12:56.411Z,37.4
2019-01-11T00:13:57.787Z,37.3
2019-01-11T00:14:59.157Z,37.2
2019-01-11T00:16:00.530Z,37.0
2019-01-11T00:17:01.907Z,36.6
2019-01-11T00:18:03.278Z,36.7
2019-01-11T00:19:07.249Z,36.7
2019-01-11T00:20:05.982Z,37.3
2019-01-11T00:21:07.348Z,36.7
2019-01-11T00:22:08.739Z,37.3
2019-01-11T00:23:10.949Z,36.8
2019-01-11T00:24:11.447Z,36.5
2019-01-11T00:25:12.826Z,36.4
2019-01-11T00:26:14.211Z,36.5
2019-01-11T00:27:15.590Z,37.0
2019-01-11T00:28:18.737Z,36.7
2019-01-11T00:29:20.111Z,36.6
2019-01-11T00:30:21.470Z,36.6
2019-01-11T00:31:22.850Z,36.6
2019-01-11T00:32:27.826Z,37.3
2019-01-11T00:33:29.797Z,36.8
2019-01-11T00:34:33.432Z,36.4
2019-01-11T00:35:34.113Z,36.6
2019-01-11T00:36:38.484Z,36.6
2019-01-11T00:37:39.862Z,36.6
2019-01-11T00:38:41.235Z,36.4
2019-01-11T00:39:42.599Z,36.5
2019-01-11T00:40:44.004Z,36.7
2019-01-11T00:41:45.377Z,36.2
2019-01-11T00:42:48.291Z,36.4
2019-01-11T00:43:49.672Z,36.5
2019-01-11T00:44:51.042Z,36.4
2019-01-11T00:45:52.425Z,36.3
2019-01-11T00:46:53.792Z,36.2
2019-01-11T00:47:55.162Z,36.0
2019-01-11T00:48:56.565Z,36.0
2019-01-11T00:49:57.927Z,36.2
2019-01-11T00:50:59.937Z,36.2
2019-01-11T00:52:02.238Z,36.3
2019-01-11T00:53:02.626Z,36.3
2019-01-11T00:54:04.002Z,36.4
2019-01-11T00:55:06.021Z,36.3
2019-01-11T00:56:06.747Z,36.2
2019-01-11T00:57:08.143Z,36.3
2019-01-11T00:58:09.515Z,36.3
2019-01-11T00:59:10.874Z,35.9
2019-01-11T01:00:12.382Z,35.9
2019-01-11T01:01:13.813Z,36.2
2019-01-11T01:02:15.140Z,36.0
2019-01-11T01:03:16.514Z,36.1
2019-01-11T01:04:17.881Z,36.0
2019-01-11T01:05:19.267Z,35.9
2019-01-11T01:06:21.381Z,35.9
2019-01-11T01:07:22.807Z,36.0
2019-01-11T01:08:30.343Z,35.8
2019-01-11T01:09:25.606Z,36.0
2019-01-11T01:10:27.824Z,36.0
2019-01-11T01:11:29.208Z,36.0
2019-01-11T01:12:30.574Z,35.8
2019-01-11T01:13:32.671Z,35.9
2019-01-11T01:14:34.048Z,35.8
2019-01-11T01:15:35.414Z,35.7
2019-01-11T01:16:36.802Z,35.7
2019-01-11T01:17:38.167Z,35.5
2019-01-11T01:18:39.539Z,35.5
2019-01-11T01:19:40.910Z,35.7
2019-01-11T01:20:42.303Z,35.7
2019-01-11T01:21:43.709Z,35.8
2019-01-11T01:22:45.138Z,35.9
2019-01-11T01:23:46.499Z,35.9
2019-01-11T01:24:47.881Z,35.7
2019-01-11T01:25:49.280Z,35.5
2019-01-11T01:26:50.710Z,35.8
2019-01-11T01:27:52.080Z,35.6
2019-01-11T01:28:53.456Z,35.7
2019-01-11T01:29:54.875Z,35.8
2019-01-11T01:30:58.185Z,35.7
2019-01-11T01:31:59.619Z,35.7
2019-01-11T01:33:00.984Z,35.6
2019-01-11T01:34:02.376Z,35.5
2019-01-11T01:35:03.750Z,35.4
2019-01-11T01:36:05.133Z,35.9
2019-01-11T01:37:06.518Z,35.8
2019-01-11T01:38:08.480Z,35.7
2019-01-11T01:39:09.854Z,35.9
2019-01-11T01:40:11.235Z,35.5
2019-01-11T01:41:12.633Z,35.8
2019-01-11T01:42:13.991Z,35.8
2019-01-11T01:43:15.905Z,35.8
2019-01-11T01:44:17.286Z,35.8
2019-01-11T01:45:18.661Z,35.9
2019-01-11T01:46:20.042Z,35.6
2019-01-11T01:47:22.219Z,35.5
2019-01-11T01:48:23.611Z,35.4
2019-01-11T01:49:26.616Z,35.2
2019-01-11T01:50:26.333Z,35.2
2019-01-11T01:51:27.745Z,35.2
2019-01-11T01:52:29.115Z,35.9
2019-01-11T01:53:30.497Z,35.6
2019-01-11T01:54:31.879Z,35.2
2019-01-11T01:55:33.247Z,35.5
2019-01-11T01:56:34.662Z,35.5
2019-01-11T01:57:36.024Z,35.5
2019-01-11T01:58:37.467Z,35.3
2019-01-11T01:59:38.891Z,35.8
2019-01-11T02:00:40.269Z,35.7
2019-01-11T02:01:41.662Z,35.1
2019-01-11T02:02:43.072Z,35.7
2019-01-11T02:03:44.442Z,35.2
2019-01-11T02:04:45.804Z,35.0
2019-01-11T02:05:47.188Z,35.2
2019-01-11T02:06:48.563Z,35.0
2019-01-11T02:07:49.938Z,35.2
2019-01-11T02:08:51.318Z,35.1
2019-01-11T02:09:52.695Z,35.1
2019-01-11T02:10:54.107Z,35.0
2019-01-11T02:11:55.993Z,35.0
2019-01-11T02:12:57.982Z,35.0
2019-01-11T02:13:59.472Z,35.1
2019-01-11T02:15:01.792Z,35.2
2019-01-11T02:16:03.289Z,34.8
2019-01-11T02:17:07.583Z,34.9
2019-01-11T02:18:08.959Z,35.0
2019-01-11T02:19:10.477Z,35.0
2019-01-11T02:20:11.845Z,34.8
2019-01-11T02:21:13.226Z,34.9
2019-01-11T02:22:14.600Z,34.9
2019-01-11T02:23:17.070Z,34.8
2019-01-11T02:24:18.491Z,34.8
2019-01-11T02:25:19.860Z,35.2
2019-01-11T02:26:21.296Z,34.8
2019-01-11T02:27:24.485Z,34.9
2019-01-11T02:28:25.863Z,35.1
2019-01-11T02:29:27.251Z,34.9
2019-01-11T02:30:28.627Z,35.0
2019-01-11T02:31:30.016Z,34.8
2019-01-11T02:32:31.375Z,35.0
2019-01-11T02:33:32.757Z,34.8
2019-01-11T02:34:34.204Z,35.1
2019-01-11T02:38:15.909Z,35.1
2019-01-11T02:39:17.474Z,35.0
2019-01-11T02:40:18.871Z,34.8
2019-01-11T02:41:20.265Z,34.9
2019-01-11T02:42:21.646Z,34.9
2019-01-11T02:43:23.035Z,35.0
2019-01-11T02:44:24.473Z,34.8
2019-01-11T02:45:25.815Z,34.7
2019-01-11T02:46:27.206Z,34.8
2019-01-11T02:47:28.579Z,34.4
2019-01-11T02:48:29.955Z,34.7
2019-01-11T02:49:31.471Z,34.7
2019-01-11T02:50:32.894Z,34.7
2019-01-11T02:51:34.275Z,34.5
2019-01-11T02:52:35.660Z,34.8
2019-01-11T02:53:37.044Z,34.7
2019-01-11T02:54:38.432Z,34.3
2019-01-11T02:55:39.810Z,34.6
2019-01-11T02:56:41.197Z,34.3
2019-01-11T02:57:42.578Z,34.6
2019-01-11T02:58:43.980Z,34.5
2019-01-11T02:59:45.369Z,34.7
2019-01-11T03:00:46.756Z,34.5
2019-01-11T03:01:48.138Z,34.6
2019-01-11T03:02:49.529Z,34.6
2019-01-11T03:03:50.912Z,34.5
2019-01-11T03:04:52.308Z,34.6
2019-01-11T03:05:53.694Z,34.7
2019-01-11T03:06:55.080Z,34.6
2019-01-11T03:07:56.463Z,34.5
2019-01-11T03:08:57.848Z,34.6
2019-01-11T03:09:59.233Z,34.8
2019-01-11T03:11:00.635Z,34.6
2019-01-11T03:12:02.001Z,34.7
2019-01-11T03:13:03.498Z,34.8
2019-01-11T03:14:04.885Z,34.8
2019-01-11T03:15:06.265Z,34.6
2019-01-11T03:16:07.616Z,34.7
2019-01-11T03:17:09.014Z,34.7
2019-01-11T03:18:10.401Z,34.9
2019-01-11T03:19:11.848Z,34.9
2019-01-11T03:20:13.246Z,34.9
2019-01-11T03:21:14.618Z,34.4
2019-01-11T03:22:15.983Z,34.8
2019-01-11T03:23:17.347Z,34.9
2019-01-11T03:24:18.709Z,34.3
2019-01-11T03:25:20.075Z,34.2
2019-01-11T03:26:21.444Z,34.1
2019-01-11T03:27:22.811Z,34.2
2019-01-11T03:28:24.182Z,34.1
2019-01-11T03:29:25.550Z,34.2
2019-01-11T03:30:26.936Z,34.4
2019-01-11T03:31:28.282Z,34.1
2019-01-11T03:32:29.644Z,34.1
2019-01-11T03:33:31.011Z,34.0
2019-01-11T03:34:33.185Z,34.1
2019-01-11T03:35:34.558Z,33.9
2019-01-11T03:36:35.931Z,33.9
2019-01-11T03:37:37.309Z,33.7
2019-01-11T03:38:38.677Z,33.7
2019-01-11T03:39:40.046Z,34.1
2019-01-11T03:40:41.416Z,33.9
2019-01-11T03:41:42.779Z,33.8
2019-01-11T03:42:44.154Z,34.1
2019-01-11T03:43:45.529Z,34.0
2019-01-11T03:44:46.939Z,34.0
2019-01-11T03:45:48.305Z,34.1
2019-01-11T03:46:50.267Z,33.9
2019-01-11T03:47:51.634Z,34.0
2019-01-11T03:48:53.008Z,33.7
2019-01-11T03:49:55.069Z,33.9
2019-01-11T03:50:55.708Z,33.5
2019-01-11T03:51:57.079Z,34.0
2019-01-11T03:52:58.449Z,34.2
2019-01-11T03:53:59.822Z,33.8
2019-01-11T03:55:01.188Z,33.9
2019-01-11T03:56:02.551Z,33.8
2019-01-11T03:57:03.934Z,33.9
2019-01-11T03:58:05.305Z,34.0
2019-01-11T03:59:06.668Z,33.9
2019-01-11T04:00:08.041Z,34.2
2019-01-11T04:01:09.410Z,34.0
2019-01-11T04:02:10.781Z,33.9
2019-01-11T04:03:12.188Z,33.9
2019-01-11T04:04:13.561Z,34.0
2019-01-11T04:05:14.940Z,34.1
2019-01-11T04:06:16.318Z,34.0
2019-01-11T04:07:17.683Z,34.0
2019-01-11T04:08:19.077Z,33.8
2019-01-11T04:09:20.444Z,34.2
2019-01-11T04:10:21.812Z,34.0
2019-01-11T04:11:23.185Z,34.0
2019-01-11T04:12:24.550Z,33.7
2019-01-11T04:13:30.432Z,33.7
2019-01-11T04:14:27.246Z,33.9
2019-01-11T04:15:28.627Z,33.8
2019-01-11T04:16:29.998Z,33.7
2019-01-11T04:17:31.359Z,33.9
2019-01-11T04:18:32.736Z,33.7
2019-01-11T04:19:34.102Z,33.9
2019-01-11T04:20:35.474Z,33.8
2019-01-11T04:21:36.863Z,33.8
2019-01-11T04:22:38.246Z,33.7
2019-01-11T04:23:39.619Z,33.3
2019-01-11T04:24:40.983Z,33.3
2019-01-11T04:25:42.364Z,33.6
2019-01-11T04:26:43.722Z,33.5
2019-01-11T04:27:45.097Z,33.7
2019-01-11T04:28:46.456Z,33.4
2019-01-11T04:29:47.832Z,33.3
2019-01-11T04:30:49.198Z,33.4
2019-01-11T04:31:50.577Z,33.4
2019-01-11T04:32:51.952Z,33.5
2019-01-11T04:33:53.336Z,33.6
2019-01-11T04:34:54.705Z,33.4
2019-01-11T04:35:56.073Z,33.6
2019-01-11T04:36:57.445Z,33.4
2019-01-11T04:37:58.813Z,33.3
2019-01-11T04:39:00.205Z,33.1
2019-01-11T04:40:01.550Z,33.3
2019-01-11T04:41:02.923Z,33.4
2019-01-11T04:42:04.285Z,33.6
2019-01-11T04:43:05.654Z,33.3
2019-01-11T04:44:07.029Z,33.3
2019-01-11T04:45:08.389Z,33.2
2019-01-11T04:46:09.762Z,33.4
2019-01-11T04:47:11.698Z,33.5
2019-01-11T04:48:13.070Z,33.3
2019-01-11T04:49:14.439Z,33.4
2019-01-11T04:50:15.807Z,33.2
2019-01-11T04:51:17.214Z,33.2
2019-01-11T04:52:18.598Z,33.3
2019-01-11T04:53:19.979Z,33.5
2019-01-11T04:54:21.339Z,33.3
2019-01-11T04:55:22.709Z,33.1
2019-01-11T04:56:24.073Z,33.3
2019-01-11T04:57:25.436Z,33.5
2019-01-11T04:58:26.820Z,33.2
2019-01-11T04:59:28.186Z,33.2
2019-01-11T05:00:29.549Z,33.3
2019-01-11T05:01:30.931Z,33.2
2019-01-11T05:02:32.294Z,33.3
2019-01-11T05:03:33.662Z,33.2
2019-01-11T05:04:35.032Z,33.3
2019-01-11T05:05:36.406Z,33.3
2019-01-11T05:06:37.776Z,33.3
2019-01-11T05:07:39.148Z,33.3
2019-01-11T05:08:40.525Z,33.1
2019-01-11T05:09:41.892Z,33.0
2019-01-11T05:10:43.268Z,33.1
2019-01-11T05:11:44.623Z,33.0
2019-01-11T05:12:46.018Z,33.1
2019-01-11T05:13:47.391Z,33.2
2019-01-11T05:14:48.780Z,33.1
2019-01-11T05:15:50.135Z,33.1
2019-01-11T05:16:51.515Z,33.0
2019-01-11T05:17:52.887Z,33.0
2019-01-11T05:18:54.249Z,33.0
2019-01-11T05:19:55.617Z,33.0
2019-01-11T05:20:56.983Z,33.0
2019-01-11T05:21:58.346Z,33.1
2019-01-11T05:22:59.731Z,33.0
2019-01-11T05:24:01.105Z,32.8
2019-01-11T05:25:02.486Z,32.8
2019-01-11T05:26:03.848Z,32.8
2019-01-11T05:27:05.225Z,32.8
2019-01-11T05:28:06.599Z,32.8
2019-01-11T05:29:07.971Z,32.7
2019-01-11T05:30:09.340Z,32.7
2019-01-11T05:31:10.707Z,32.9
2019-01-11T05:32:12.083Z,32.7
2019-01-11T05:33:13.446Z,32.8
2019-01-11T05:34:14.821Z,32.7
2019-01-11T05:35:16.186Z,32.7
2019-01-11T05:36:17.597Z,32.8
2019-01-11T05:37:18.998Z,32.7
2019-01-11T05:38:20.370Z,32.7
2019-01-11T05:39:21.734Z,32.8
2019-01-11T05:40:23.172Z,32.7
2019-01-11T05:41:24.546Z,32.6
2019-01-11T05:42:25.911Z,32.7
2019-01-11T05:43:27.277Z,32.7
2019-01-11T05:44:28.644Z,32.7
2019-01-11T05:45:30.014Z,32.7
2019-01-11T05:46:31.386Z,32.6
2019-01-11T05:47:32.748Z,32.4
2019-01-11T05:48:34.132Z,32.7
2019-01-11T05:49:35.500Z,32.9
2019-01-11T05:50:36.862Z,32.4
2019-01-11T05:51:38.244Z,32.6
2019-01-11T05:52:39.602Z,32.6
2019-01-11T05:53:40.979Z,32.6
2019-01-11T05:54:42.585Z,32.5
2019-01-11T05:55:43.685Z,32.6
2019-01-11T05:56:45.047Z,32.7
2019-01-11T05:57:46.433Z,32.5
2019-01-11T05:58:47.791Z,32.4
2019-01-11T05:59:49.846Z,32.4
2019-01-11T06:00:51.219Z,32.4
2019-01-11T06:01:52.577Z,32.4
2019-01-11T06:02:53.942Z,32.4
2019-01-11T06:03:56.795Z,32.3
2019-01-11T06:04:56.688Z,32.3
2019-01-11T06:05:58.055Z,32.4
2019-01-11T06:06:59.432Z,32.3
2019-01-11T06:08:00.818Z,32.3
2019-01-11T06:09:02.184Z,32.5
2019-01-11T06:10:03.549Z,32.3
2019-01-11T06:11:04.926Z,32.5
2019-01-11T06:12:06.291Z,32.4
2019-01-11T06:13:08.310Z,32.3
2019-01-11T06:14:09.680Z,32.4
2019-01-11T06:15:11.748Z,32.4
2019-01-11T06:16:13.139Z,32.5
2019-01-11T06:17:14.500Z,32.4
2019-01-11T06:18:15.891Z,32.4
2019-01-11T06:19:17.260Z,32.5
2019-01-11T06:20:18.634Z,32.3
2019-01-11T06:21:20.001Z,32.3
2019-01-11T06:22:21.367Z,32.3
2019-01-11T06:23:23.432Z,32.3
2019-01-11T06:24:24.808Z,32.5
2019-01-11T06:25:26.175Z,32.5
2019-01-11T06:26:27.557Z,32.4
2019-01-11T06:27:28.940Z,32.4
2019-01-11T06:28:30.309Z,32.3
2019-01-11T06:29:31.689Z,32.5
2019-01-11T06:30:33.565Z,32.5
2019-01-11T06:31:34.935Z,32.5
2019-01-11T06:32:37.283Z,32.5
2019-01-11T06:33:38.662Z,32.5
2019-01-11T06:34:40.036Z,32.4
2019-01-11T06:35:41.408Z,32.4
2019-01-11T06:36:42.776Z,32.4
2019-01-11T06:37:44.135Z,32.4
2019-01-11T06:38:45.514Z,32.4
2019-01-11T06:39:46.886Z,32.5
2019-01-11T06:40:48.252Z,32.4
2019-01-11T06:41:49.624Z,32.5
2019-01-11T06:42:50.997Z,32.4
2019-01-11T06:43:52.370Z,32.5
2019-01-11T06:44:53.744Z,32.4
2019-01-11T06:45:55.122Z,32.3
2019-01-11T06:46:56.487Z,32.3
2019-01-11T06:47:57.871Z,32.3
2019-01-11T06:48:59.243Z,32.3
2019-01-11T06:50:00.615Z,32.2
2019-01-11T06:51:01.977Z,32.2
2019-01-11T06:52:03.374Z,32.4
2019-01-11T06:53:04.755Z,32.5
2019-01-11T06:54:06.126Z,32.4
2019-01-11T06:55:07.495Z,32.3
2019-01-11T06:56:08.881Z,32.3
2019-01-11T06:57:10.246Z,32.3
2019-01-11T06:58:11.599Z,32.2
2019-01-11T06:59:12.986Z,32.3
2019-01-11T07:00:14.362Z,32.3
2019-01-11T07:01:15.777Z,32.1
2019-01-11T07:02:17.850Z,32.3
2019-01-11T07:03:19.233Z,32.3
2019-01-11T07:04:20.607Z,32.2
2019-01-11T07:05:22.022Z,32.3
2019-01-11T07:06:23.393Z,32.3
2019-01-11T07:07:25.522Z,32.3
2019-01-11T07:08:26.890Z,32.2
2019-01-11T07:09:29.184Z,32.1
2019-01-11T07:10:31.932Z,32.2
2019-01-11T07:11:35.538Z,32.3
2019-01-11T07:12:39.472Z,32.2
2019-01-11T07:13:43.150Z,32.3
2019-01-11T07:14:44.554Z,32.2
2019-01-11T07:15:47.901Z,32.2
2019-01-11T07:16:51.260Z,32.3
2019-01-11T07:17:53.650Z,32.1
2019-01-11T07:18:57.484Z,32.3
2019-01-11T07:20:05.523Z,32.3
2019-01-11T07:21:02.895Z,32.2
2019-01-11T07:22:05.771Z,32.3
2019-01-11T07:23:09.147Z,32.3
2019-01-11T07:24:11.915Z,32.2
2019-01-11T07:25:14.273Z,32.3
2019-01-11T07:26:16.790Z,32.3
2019-01-11T07:27:19.821Z,32.3
2019-01-11T07:28:23.772Z,32.1
2019-01-11T07:29:25.190Z,32.1
2019-01-11T07:30:28.278Z,32.1
2019-01-11T07:31:31.537Z,32.2
2019-01-11T07:32:34.282Z,32.2
2019-01-11T07:33:36.711Z,32.3
2019-01-11T07:34:40.533Z,32.3
2019-01-11T07:35:43.915Z,32.1
2019-01-11T07:36:47.934Z,32.1
2019-01-11T07:37:50.334Z,32.2
2019-01-11T07:38:51.955Z,32.2
2019-01-11T07:39:55.239Z,32.1
2019-01-11T07:40:58.059Z,32.1
2019-01-11T07:42:00.879Z,32.3
2019-01-11T07:43:04.708Z,32.3
2019-01-11T07:44:06.614Z,32.1
2019-01-11T07:45:09.534Z,32.1
2019-01-11T07:46:12.702Z,32.1
2019-01-11T07:47:16.099Z,32.2
2019-01-11T07:48:18.648Z,32.3
2019-01-11T07:49:23.191Z,32.2
2019-01-11T07:50:32.062Z,32.1
2019-01-11T07:51:32.484Z,32.2
2019-01-11T07:52:33.866Z,32.1
2019-01-11T07:53:35.252Z,32.0
2019-01-11T07:54:36.635Z,31.9
2019-01-11T07:55:38.033Z,32.2
2019-01-11T07:56:41.376Z,32.0
2019-01-11T07:57:43.814Z,32.0
2019-01-11T07:58:47.347Z,31.9
2019-01-11T07:59:50.217Z,31.9
2019-01-11T08:00:54.940Z,31.7
2019-01-11T08:01:57.424Z,31.6
2019-01-11T08:02:58.827Z,31.7
2019-01-11T08:04:01.345Z,31.6
2019-01-11T08:05:03.842Z,31.8
2019-01-11T08:06:07.193Z,31.7
2019-01-11T08:07:09.097Z,31.7
2019-01-11T08:08:12.935Z,31.6
2019-01-11T08:09:16.365Z,31.8
2019-01-11T08:10:18.985Z,31.7
2019-01-11T08:11:21.793Z,31.7
2019-01-11T08:12:26.110Z,31.6
2019-01-11T08:13:27.480Z,32.0
2019-01-11T08:14:30.451Z,31.6
2019-01-11T08:15:32.865Z,31.6
2019-01-11T08:16:35.822Z,32.0
2019-01-11T08:17:38.991Z,31.5
2019-01-11T08:18:41.559Z,31.7
2019-01-11T08:19:44.335Z,32.0
2019-01-11T08:20:46.765Z,31.7
2019-01-11T08:21:50.279Z,31.9
2019-01-11T08:22:53.481Z,31.9
2019-01-11T08:23:59.601Z,31.6
2019-01-11T08:25:02.624Z,31.9
2019-01-11T08:26:04.001Z,31.9
2019-01-11T08:27:05.369Z,31.9
2019-01-11T08:28:07.577Z,32.0
2019-01-11T08:29:10.383Z,31.9
2019-01-11T08:30:12.999Z,31.7
2019-01-11T08:31:16.436Z,31.8
2019-01-11T08:32:19.265Z,31.5
2019-01-11T08:33:22.047Z,31.6
2019-01-11T08:34:24.702Z,31.6
2019-01-11T08:35:30.616Z,31.6
2019-01-11T08:36:38.139Z,31.3
2019-01-11T08:37:39.600Z,31.4
2019-01-11T08:38:40.972Z,31.4
2019-01-11T08:39:43.165Z,31.5
2019-01-11T08:40:45.328Z,31.6
2019-01-11T08:41:46.697Z,31.4
2019-01-11T08:42:49.064Z,31.5
2019-01-11T08:43:51.350Z,31.8
2019-01-11T08:44:52.726Z,31.6
2019-01-11T08:45:57.515Z,31.5
2019-01-11T08:47:00.694Z,31.7
2019-01-11T08:48:03.168Z,31.8
2019-01-11T08:49:04.595Z,31.5
2019-01-11T08:50:07.794Z,31.7
2019-01-11T08:51:10.459Z,31.3
2019-01-11T08:52:14.717Z,31.6
2019-01-11T08:53:16.099Z,31.7
2019-01-11T08:54:19.400Z,31.9
2019-01-11T08:55:22.340Z,31.7
2019-01-11T08:56:24.892Z,31.8
2019-01-11T08:57:27.013Z,31.9
2019-01-11T08:58:31.226Z,31.8
2019-01-11T08:59:37.834Z,31.9
2019-01-11T09:00:40.783Z,31.5
2019-01-11T09:01:42.174Z,31.5
2019-01-11T09:02:43.587Z,31.6
2019-01-11T09:03:45.791Z,31.6
2019-01-11T09:04:47.175Z,31.3
2019-01-11T09:05:50.614Z,31.6
2019-01-11T09:06:53.841Z,31.5
2019-01-11T09:07:56.076Z,31.6
2019-01-11T09:08:59.809Z,31.3
2019-01-11T09:10:02.106Z,31.6
2019-01-11T09:11:08.558Z,31.6
2019-01-11T09:12:15.683Z,31.4
2019-01-11T09:13:17.058Z,31.3
2019-01-11T09:14:18.446Z,31.4
2019-01-11T09:15:19.813Z,31.2
2019-01-11T09:16:21.214Z,31.3
2019-01-11T09:17:22.600Z,31.4
2019-01-11T09:18:25.162Z,31.4
2019-01-11T09:19:27.800Z,31.6
2019-01-11T09:20:31.245Z,31.6
2019-01-11T09:21:33.336Z,31.8
2019-01-11T09:22:37.303Z,31.7
2019-01-11T09:23:38.733Z,31.6
2019-01-11T09:24:42.825Z,31.2
2019-01-11T09:25:45.453Z,31.6
2019-01-11T09:26:48.320Z,31.0
2019-01-11T09:27:51.432Z,30.9
2019-01-11T09:28:53.423Z,31.3
2019-01-11T09:29:56.692Z,30.9
2019-01-11T09:30:59.461Z,30.9
2019-01-11T09:32:01.969Z,31.0
2019-01-11T09:33:05.235Z,31.1
2019-01-11T09:34:10.128Z,30.9
2019-01-11T09:35:16.036Z,31.1
2019-01-11T09:36:16.532Z,31.3
2019-01-11T09:37:17.913Z,31.1
2019-01-11T09:38:20.242Z,30.9
2019-01-11T09:39:22.015Z,30.9
2019-01-11T09:40:24.551Z,31.7
2019-01-11T09:41:27.853Z,31.7
2019-01-11T09:42:31.202Z,32.1
2019-01-11T09:43:33.673Z,32.4
2019-01-11T09:44:37.346Z,32.7
2019-01-11T09:45:40.034Z,32.6
2019-01-11T09:46:43.592Z,32.8
2019-01-11T09:47:45.854Z,33.1
2019-01-11T09:48:48.739Z,33.0
2019-01-11T09:49:51.061Z,33.0
2019-01-11T09:50:54.224Z,33.1
2019-01-11T09:51:56.673Z,33.1
2019-01-11T09:52:59.584Z,33.1
2019-01-11T09:54:02.350Z,33.1
2019-01-11T09:55:05.207Z,33.2
2019-01-11T09:56:08.530Z,33.2
2019-01-11T09:57:11.232Z,33.3
2019-01-11T09:58:16.418Z,33.3
2019-01-11T09:59:18.021Z,33.3
2019-01-11T10:00:20.219Z,33.4
2019-01-11T10:01:22.607Z,33.3
2019-01-11T10:02:25.191Z,33.3
2019-01-11T10:03:28.207Z,33.3
2019-01-11T10:04:31.540Z,33.2
2019-01-11T10:05:33.592Z,33.1
2019-01-11T10:06:36.706Z,33.2
2019-01-11T10:07:40.111Z,33.1
2019-01-11T10:08:42.781Z,33.1
2019-01-11T10:09:46.882Z,33.2
2019-01-11T10:10:48.272Z,33.2
2019-01-11T10:11:51.323Z,33.3
2019-01-11T10:12:53.979Z,33.2
2019-01-11T10:13:56.571Z,33.3
2019-01-11T10:14:59.888Z,33.2
2019-01-11T10:16:02.731Z,33.3
2019-01-11T10:17:05.177Z,33.4
2019-01-11T10:18:08.756Z,33.3
2019-01-11T10:19:10.744Z,33.2
2019-01-11T10:20:14.556Z,33.2
2019-01-11T10:21:21.992Z,33.2
2019-01-11T10:22:20.667Z,33.3
2019-01-11T10:23:22.947Z,33.3
2019-01-11T10:24:25.887Z,33.2
2019-01-11T10:25:28.813Z,33.0
2019-01-11T10:26:31.588Z,33.1
2019-01-11T10:27:34.131Z,33.0
2019-01-11T10:28:37.177Z,33.0
2019-01-11T10:29:41.199Z,33.1
2019-01-11T10:30:42.577Z,33.3
2019-01-11T10:31:45.318Z,33.0
2019-01-11T10:32:48.625Z,33.1
2019-01-11T10:33:53.242Z,32.9
2019-01-11T10:34:54.615Z,32.8
2019-01-11T10:35:57.063Z,32.7
2019-01-11T10:36:59.398Z,32.5
2019-01-11T10:38:02.453Z,32.6
2019-01-11T10:39:06.904Z,32.4
2019-01-11T10:40:09.775Z,32.3
2019-01-11T10:41:11.175Z,32.2
2019-01-11T10:42:14.515Z,32.4
2019-01-11T10:43:16.002Z,32.1
2019-01-11T10:44:20.041Z,31.8
2019-01-11T10:45:25.946Z,32.0
2019-01-11T10:46:27.456Z,31.8
2019-01-11T10:47:28.856Z,31.7
2019-01-11T10:48:32.055Z,31.8
2019-01-11T10:49:34.169Z,31.8
2019-01-11T10:50:37.116Z,31.6
2019-01-11T10:51:40.332Z,31.8
2019-01-11T10:52:43.578Z,31.8
2019-01-11T10:53:45.796Z,31.6
2019-01-11T10:54:48.628Z,31.8
2019-01-11T10:55:51.519Z,31.1
2019-01-11T10:56:56.874Z,31.2
2019-01-11T10:57:58.427Z,31.3
2019-01-11T10:58:59.805Z,31.3
2019-01-11T11:00:02.999Z,31.1
2019-01-11T11:01:06.030Z,31.2
2019-01-11T11:02:08.591Z,31.3
2019-01-11T11:03:12.095Z,31.4
2019-01-11T11:04:14.728Z,31.3
2019-01-11T11:05:18.135Z,31.2
2019-01-11T11:06:21.005Z,31.3
2019-01-11T11:07:22.378Z,31.5
2019-01-11T11:08:27.086Z,31.0
2019-01-11T11:09:30.916Z,31.0
2019-01-11T11:10:32.319Z,31.3
2019-01-11T11:11:34.848Z,31.2
2019-01-11T11:12:37.365Z,31.1
2019-01-11T11:13:40.739Z,30.7
2019-01-11T11:14:43.041Z,30.9
2019-01-11T11:15:45.996Z,30.5
2019-01-11T11:16:49.237Z,30.5
2019-01-11T11:17:52.105Z,30.6
2019-01-11T11:18:54.305Z,30.3
2019-01-11T11:21:01.960Z,30.4
2019-01-11T11:22:03.324Z,30.5
2019-01-11T11:23:06.702Z,30.3
2019-01-11T11:24:09.259Z,30.5
2019-01-11T11:25:12.223Z,30.3
2019-01-11T11:26:15.507Z,30.5
2019-01-11T11:27:18.175Z,30.4
2019-01-11T11:28:19.589Z,30.4
2019-01-11T11:29:24.302Z,30.3
2019-01-11T11:30:27.086Z,30.4
2019-01-11T11:31:31.120Z,30.3
2019-01-11T11:32:35.895Z,30.4
2019-01-11T11:33:37.276Z,30.4
2019-01-11T11:34:38.657Z,30.4
2019-01-11T11:35:40.576Z,30.5
2019-01-11T11:36:43.790Z,30.4
2019-01-11T11:37:47.203Z,30.5
2019-01-11T11:38:50.863Z,30.6
2019-01-11T11:39:51.867Z,30.5
2019-01-11T11:40:55.008Z,30.4
2019-01-11T11:41:58.291Z,30.2
2019-01-11T11:43:01.238Z,30.2
2019-01-11T11:44:05.971Z,30.0
2019-01-11T11:45:07.363Z,29.8
2019-01-11T11:46:09.480Z,30.0
2019-01-11T11:47:11.584Z,29.6
2019-01-11T11:48:14.913Z,29.5
2019-01-11T11:49:18.083Z,29.2
2019-01-11T11:50:21.340Z,29.3
2019-01-11T11:51:23.623Z,29.6
2019-01-11T11:52:26.711Z,29.4
2019-01-11T11:53:29.657Z,29.5
2019-01-11T11:54:32.945Z,29.8
2019-01-11T11:55:36.974Z,29.9
2019-01-11T11:56:38.371Z,29.9
2019-01-11T11:57:41.563Z,29.7
2019-01-11T11:58:43.704Z,30.0
2019-01-11T11:59:46.627Z,29.8
2019-01-11T12:00:49.419Z,29.8
2019-01-11T12:01:52.632Z,29.7
2019-01-11T12:02:56.179Z,29.9
2019-01-11T12:03:58.133Z,29.5
2019-01-11T12:05:01.406Z,29.5
2019-01-11T12:06:04.391Z,29.6
2019-01-11T12:07:07.787Z,29.6
2019-01-11T12:08:10.820Z,29.5
2019-01-11T12:09:12.879Z,29.5
2019-01-11T12:10:15.512Z,29.5
2019-01-11T12:11:17.842Z,29.6
2019-01-11T12:12:21.769Z,29.6
2019-01-11T12:13:24.367Z,29.4
2019-01-11T12:14:27.799Z,29.5
2019-01-11T12:15:29.852Z,29.5
2019-01-11T12:16:31.217Z,29.5
2019-01-11T12:17:36.101Z,29.5
2019-01-11T12:18:40.227Z,29.5
2019-01-11T12:19:42.374Z,29.5
2019-01-11T12:20:44.461Z,29.5
2019-01-11T12:21:48.008Z,29.6
2019-01-11T12:22:50.255Z,29.7
2019-01-11T12:23:52.877Z,29.7
2019-01-11T12:24:56.300Z,29.7
2019-01-11T12:25:58.151Z,29.6
2019-01-11T12:27:01.928Z,29.6
2019-01-11T12:28:04.197Z,29.5
2019-01-11T12:29:06.762Z,29.6
2019-01-11T12:30:10.975Z,29.6
2019-01-11T12:31:16.091Z,29.6
2019-01-11T12:32:19.637Z,29.5
2019-01-11T12:33:18.831Z,29.5
2019-01-11T12:34:21.867Z,29.6
2019-01-11T12:35:24.708Z,29.7
2019-01-11T12:36:27.418Z,29.7
2019-01-11T12:37:30.396Z,29.6
2019-01-11T12:38:33.052Z,28.9
2019-01-11T12:39:35.785Z,29.7
2019-01-11T12:40:38.720Z,28.9
2019-01-11T12:41:41.698Z,29.1
2019-01-11T12:42:47.143Z,29.0
2019-01-11T12:43:49.840Z,29.2
2019-01-11T12:44:49.868Z,29.3
2019-01-11T12:45:53.086Z,29.1
2019-01-11T12:46:56.848Z,29.2
2019-01-11T12:47:58.230Z,29.3
2019-01-11T12:49:01.782Z,29.3
2019-01-11T12:50:04.315Z,29.1
2019-01-11T12:51:07.081Z,29.0
2019-01-11T12:52:10.623Z,29.2
2019-01-11T12:53:13.434Z,29.2
2019-01-11T12:54:20.343Z,29.2
2019-01-11T12:55:21.730Z,29.2
2019-01-11T12:56:23.108Z,29.3
2019-01-11T12:57:24.486Z,29.3
2019-01-11T12:58:27.793Z,29.3
2019-01-11T12:59:30.458Z,29.2
2019-01-11T13:00:33.366Z,29.3
2019-01-11T13:01:36.078Z,29.4
2019-01-11T13:02:39.529Z,29.3
2019-01-11T13:03:41.649Z,29.3
2019-01-11T13:05:49.034Z,29.3
2019-01-11T13:06:50.974Z,29.2
2019-01-11T13:07:53.544Z,29.1
2019-01-11T13:08:56.790Z,29.0
2019-01-11T13:09:59.210Z,29.7
2019-01-11T13:11:02.272Z,29.7
2019-01-11T13:12:04.215Z,29.7
2019-01-11T13:13:08.134Z,29.6
2019-01-11T13:14:10.706Z,28.9
2019-01-11T13:15:13.253Z,28.9
2019-01-11T13:16:16.093Z,28.9
2019-01-11T13:17:20.540Z,29.7
2019-01-11T13:18:24.305Z,29.1
2019-01-11T13:19:25.687Z,29.2
2019-01-11T13:20:27.907Z,29.3
2019-01-11T13:21:30.724Z,29.1
2019-01-11T13:22:33.979Z,29.1
2019-01-11T13:23:37.536Z,29.1
2019-01-11T13:24:39.649Z,29.1
2019-01-11T13:25:42.372Z,28.9
2019-01-11T13:26:45.051Z,28.9
2019-01-11T13:27:47.829Z,28.9
2019-01-11T13:28:51.111Z,29.1
2019-01-11T13:29:58.149Z,28.9
2019-01-11T13:31:01.565Z,29.8
2019-01-11T13:32:04.047Z,29.0
2019-01-11T13:33:05.461Z,29.6
2019-01-11T13:34:07.745Z,29.7
2019-01-11T13:35:12.409Z,29.7
2019-01-11T13:36:13.777Z,29.6
2019-01-11T13:37:15.147Z,29.6
2019-01-11T13:38:16.537Z,29.6
2019-01-11T13:39:19.860Z,29.7
2019-01-11T13:40:22.734Z,28.9
2019-01-11T13:41:27.002Z,29.3
2019-01-11T13:42:28.379Z,29.3
2019-01-11T13:43:31.576Z,29.7
2019-01-11T13:44:34.827Z,29.3
2019-01-11T13:45:36.167Z,29.2
2019-01-11T13:46:40.245Z,29.3
2019-01-11T13:47:43.924Z,29.4
2019-01-11T13:48:46.664Z,29.5
2019-01-11T13:49:48.778Z,29.5
2019-01-11T13:50:51.084Z,29.5
2019-01-11T13:51:55.580Z,29.5